Time;durP1;ratioP1;P1;durP2;ratioP2;P2;SDS_P1;SDS_P2;PMS_P1;PMS_P2;Temp;Humidity;BMP_temperature;BMP_pressure;BME280_temperature;BME280_humidity;BME280_pressure;Samples;Min_cycle;Max_cycle;Signal;HPM_P1;HPM_P2
2022/12/18 00:01:37;;;;;;;29.42;15.52;;;-11.10;99.90;;;;;;5007392;28;20034;-84
2022/12/18 00:04:07;;;;;;;34.67;17.30;;;-11.10;99.90;;;;;;4992465;28;20474;-84
2022/12/18 00:06:34;;;;;;;35.42;16.38;;;-11.10;99.90;;;;;;5011655;28;20125;-84
2022/12/18 00:09:03;;;;;;;36.63;17.45;;;-11.20;99.90;;;;;;5000022;28;20046;-84
2022/12/18 00:11:30;;;;;;;42.00;18.52;;;-11.20;99.90;;;;;;5017614;28;20101;-84
2022/12/18 00:13:58;;;;;;;41.00;17.73;;;-11.20;99.90;;;;;;5016010;28;20157;-84
2022/12/18 00:16:26;;;;;;;37.63;16.60;;;-11.20;99.90;;;;;;4997110;28;20116;-84
2022/12/18 00:18:56;;;;;;;31.70;17.10;;;-11.20;99.90;;;;;;5016876;28;20393;-84
2022/12/18 00:21:21;;;;;;;35.22;17.90;;;-11.20;99.90;;;;;;5015554;28;20028;-84
2022/12/18 00:23:49;;;;;;;30.00;16.38;;;-11.30;99.90;;;;;;5015085;28;20582;-83
2022/12/18 00:26:18;;;;;;;34.67;16.60;;;-11.30;99.90;;;;;;4999543;28;20077;-83
2022/12/18 00:28:45;;;;;;;33.42;16.23;;;-11.30;99.90;;;;;;4999289;28;20490;-84
2022/12/18 00:31:14;;;;;;;35.95;16.38;;;-11.30;99.90;;;;;;5013662;28;20091;-83
2022/12/18 00:33:40;;;;;;;37.28;17.13;;;-11.30;99.90;;;;;;5014334;28;20552;-84
2022/12/18 00:36:17;;;;;;;40.72;18.48;;;-11.30;99.90;;;;;;4997872;28;20041;-84
2022/12/18 00:38:43;;;;;;;37.50;17.70;;;-11.40;99.90;;;;;;5026576;28;20675;-85
2022/12/18 00:41:11;;;;;;;35.13;17.15;;;-11.30;99.90;;;;;;4993478;28;20057;-83
2022/12/18 00:43:37;;;;;;;34.35;16.33;;;-11.30;99.90;;;;;;5013261;28;20041;-83
2022/12/18 00:46:03;;;;;;;28.20;15.57;;;-11.30;99.90;;;;;;5015197;28;20037;-84
2022/12/18 00:48:29;;;;;;;32.53;16.10;;;-11.30;99.90;;;;;;5014382;28;20582;-84
2022/12/18 00:50:55;;;;;;;32.53;17.05;;;-11.30;99.90;;;;;;4997269;28;20030;-84
2022/12/18 00:53:21;;;;;;;32.28;17.40;;;-11.30;99.90;;;;;;5031129;28;20032;-83
2022/12/18 00:55:47;;;;;;;33.00;16.67;;;-11.30;99.90;;;;;;5016342;28;20080;-83
2022/12/18 00:58:15;;;;;;;31.52;17.40;;;-11.40;99.90;;;;;;5014001;28;20176;-83
2022/12/18 01:00:42;;;;;;;34.28;17.60;;;-11.50;99.90;;;;;;5014184;28;20041;-84
2022/12/18 01:03:13;;;;;;;33.92;17.10;;;-11.50;99.90;;;;;;5009169;28;20049;-83
2022/12/18 01:05:42;;;;;;;33.58;16.10;;;-11.50;99.90;;;;;;4999274;28;20030;-82
2022/12/18 01:08:08;;;;;;;35.00;16.48;;;-11.60;99.90;;;;;;4998380;28;20026;-84
2022/12/18 01:10:34;;;;;;;31.20;16.42;;;-11.60;99.90;;;;;;5014347;28;20037;-84
2022/12/18 01:13:00;;;;;;;40.47;18.00;;;-11.60;99.90;;;;;;5030809;28;20037;-84
2022/12/18 01:15:26;;;;;;;29.27;15.38;;;-11.50;99.90;;;;;;5014140;28;20034;-84
2022/12/18 01:17:52;;;;;;;38.38;16.95;;;-11.50;99.90;;;;;;4995123;28;20049;-84
2022/12/18 01:20:18;;;;;;;35.90;17.02;;;-11.50;99.90;;;;;;4994485;28;20026;-84
2022/12/18 01:22:44;;;;;;;33.97;16.70;;;-11.50;99.90;;;;;;4995029;28;20609;-84
2022/12/18 01:25:10;;;;;;;33.88;17.00;;;-11.40;99.90;;;;;;5010895;28;20029;-84
2022/12/18 01:27:35;;;;;;;34.20;17.48;;;-11.40;99.90;;;;;;5027729;28;20410;-83
2022/12/18 01:30:03;;;;;;;33.00;15.75;;;-11.40;99.90;;;;;;4994550;28;20034;-83
2022/12/18 01:32:39;;;;;;;36.55;17.20;;;-11.30;99.90;;;;;;5021559;28;20101;-83
2022/12/18 01:35:06;;;;;;;48.03;18.48;;;-11.30;99.90;;;;;;4991872;28;20027;-84
2022/12/18 01:37:31;;;;;;;46.10;17.05;;;-11.30;99.90;;;;;;5023815;28;20125;-83
2022/12/18 01:39:57;;;;;;;43.35;16.45;;;-11.40;99.90;;;;;;4975486;28;20145;-82
2022/12/18 01:42:25;;;;;;;39.65;16.88;;;-11.30;99.90;;;;;;4994968;28;20038;-83
2022/12/18 01:45:11;;;;;;;42.72;18.42;;;-11.30;99.90;;;;;;5010672;28;20038;-84
2022/12/18 01:47:45;;;;;;;40.92;18.05;;;-11.10;99.90;;;;;;4992437;28;20037;-83
2022/12/18 01:50:13;;;;;;;;;;;-11.10;99.90;;;;;;5004215;28;20087;-84
2022/12/18 01:52:42;;;;;;;44.03;18.48;;;-11.10;99.90;;;;;;4999883;28;20005;-84
2022/12/18 01:55:10;;;;;;;43.35;18.05;;;-11.10;99.90;;;;;;4990629;28;20033;-83
2022/12/18 01:57:37;;;;;;;41.85;18.65;;;-11.00;99.90;;;;;;5010239;28;20040;-83
2022/12/18 02:00:11;;;;;;;44.10;17.58;;;-10.90;99.90;;;;;;5008602;28;20120;-83
2022/12/18 02:02:42;;;;;;;42.85;18.40;;;-10.90;99.90;;;;;;5014536;28;20363;-84
2022/12/18 02:05:10;;;;;;;45.30;19.00;;;-10.80;99.90;;;;;;5009383;28;20109;-83
2022/12/18 02:08:04;;;;;;;44.53;18.38;;;-10.90;99.90;;;;;;5001673;28;20590;-83
2022/12/18 02:11:10;;;;;;;38.63;16.70;;;-10.90;99.90;;;;;;5009391;28;20503;-82
2022/12/18 02:13:49;;;;;;;30.50;13.30;;;-10.90;99.90;;;;;;5005600;28;20046;-84
2022/12/18 02:16:32;;;;;;;39.85;18.45;;;-10.90;99.90;;;;;;5015300;28;20041;-83
2022/12/18 02:19:06;;;;;;;41.45;16.08;;;-10.90;99.90;;;;;;4993817;28;20041;-84
2022/12/18 02:22:10;;;;;;;36.85;17.67;;;-10.80;99.90;;;;;;5002361;28;20068;-82
2022/12/18 02:24:58;;;;;;;33.70;15.52;;;-10.90;99.90;;;;;;4932250;29;20130;-84
2022/12/18 02:27:26;;;;;;;32.55;14.38;;;-11.00;99.90;;;;;;4937018;29;20028;-83
2022/12/18 02:29:55;;;;;;;38.05;15.40;;;-11.10;99.90;;;;;;4976491;28;20042;-84
2022/12/18 02:32:39;;;;;;;32.75;14.88;;;-11.10;99.90;;;;;;5008132;28;20042;-83
2022/12/18 02:35:06;;;;;;;36.03;16.95;;;-11.10;99.90;;;;;;5002682;28;20087;-84
2022/12/18 02:37:34;;;;;;;37.08;17.40;;;-11.10;99.90;;;;;;5010431;28;20042;-83
2022/12/18 02:40:04;;;;;;;33.50;15.90;;;-11.20;99.90;;;;;;4990280;28;20495;-82
2022/12/18 02:42:32;;;;;;;33.03;14.68;;;-11.20;99.90;;;;;;5006399;28;20031;-83
2022/12/18 02:44:59;;;;;;;28.52;13.68;;;-11.20;99.90;;;;;;5011529;28;20053;-84
2022/12/18 02:47:31;;;;;;;29.75;15.32;;;-11.30;99.90;;;;;;4991515;28;20033;-84
2022/12/18 02:50:18;;;;;;;29.55;14.73;;;-11.30;99.90;;;;;;5005729;28;20046;-84
2022/12/18 02:53:18;;;;;;;33.67;14.95;;;-11.30;99.90;;;;;;4973550;28;20117;-84
2022/12/18 02:55:51;;;;;;;37.15;16.48;;;-11.20;99.90;;;;;;5009145;28;20061;-83
2022/12/18 02:58:29;;;;;;;38.95;15.40;;;-11.20;99.90;;;;;;4995231;28;20057;-83
2022/12/18 03:01:33;;;;;;;37.42;17.92;;;-11.10;99.90;;;;;;4989899;28;20039;-83
2022/12/18 03:04:08;;;;;;;28.48;13.85;;;-11.00;99.90;;;;;;4995266;28;20033;-83
2022/12/18 03:06:40;;;;;;;34.00;16.15;;;-11.10;99.90;;;;;;5013933;28;20058;-83
2022/12/18 03:09:11;;;;;;;28.95;15.57;;;-11.20;99.90;;;;;;4998505;28;20491;-83
2022/12/18 03:14:30;;;;;;;30.08;14.40;;;-11.30;99.90;;;;;;5009252;28;20146;-83
2022/12/18 03:16:59;;;;;;;30.52;14.98;;;-11.40;99.90;;;;;;5002887;28;20046;-83
2022/12/18 03:19:29;;;;;;;28.77;14.93;;;-11.60;99.90;;;;;;5008498;28;20038;-84
2022/12/18 03:22:01;;;;;;;30.20;14.07;;;-11.70;99.90;;;;;;4993292;28;20487;-83
2022/12/18 03:24:37;;;;;;;34.17;15.57;;;-11.70;99.90;;;;;;5006476;28;20033;-82
2022/12/18 03:27:10;;;;;;;30.98;14.23;;;-11.70;99.90;;;;;;4992852;28;20092;-84
2022/12/18 03:29:42;;;;;;;35.42;15.98;;;-11.80;99.90;;;;;;4993428;28;20125;-84
2022/12/18 03:32:19;;;;;;;30.98;14.30;;;-11.90;99.90;;;;;;5017793;28;20599;-83
2022/12/18 03:34:48;;;;;;;31.83;16.23;;;-11.90;99.90;;;;;;4988989;28;20048;-83
2022/12/18 03:37:15;;;;;;;31.98;14.30;;;-11.90;99.90;;;;;;4990309;28;20072;-84
2022/12/18 03:39:41;;;;;;;31.35;14.48;;;-11.80;99.90;;;;;;4976612;28;20059;-84
2022/12/18 03:42:38;;;;;;;32.75;14.82;;;-11.90;99.90;;;;;;4975056;28;20026;-84
2022/12/18 03:45:31;;;;;;;29.90;14.68;;;-11.90;99.90;;;;;;4977105;28;20042;-82
2022/12/18 03:48:07;;;;;;;36.72;15.23;;;-11.90;99.90;;;;;;4989424;28;20368;-82
2022/12/18 03:50:46;;;;;;;32.85;15.00;;;-11.90;99.90;;;;;;4977281;28;20125;-83
2022/12/18 03:53:46;;;;;;;28.77;14.15;;;-12.00;99.90;;;;;;4992357;28;20116;-83
2022/12/18 03:56:15;;;;;;;32.15;14.93;;;-12.00;99.90;;;;;;5015734;28;20029;-82
2022/12/18 03:58:44;;;;;;;34.08;15.45;;;-12.00;99.90;;;;;;4984177;28;20058;-82
2022/12/18 04:01:19;;;;;;;34.53;14.30;;;-12.10;99.90;;;;;;4990502;28;20080;-83
2022/12/18 04:03:47;;;;;;;31.42;14.43;;;-12.10;99.90;;;;;;4992146;28;20041;-83
2022/12/18 04:06:15;;;;;;;33.03;13.80;;;-12.10;99.90;;;;;;5011346;28;20411;-83
2022/12/18 04:08:43;;;;;;;32.10;14.95;;;-12.10;99.90;;;;;;5001367;28;20062;-83
2022/12/18 04:11:12;;;;;;;30.42;14.93;;;-12.20;99.90;;;;;;4998012;28;20409;-83
2022/12/18 04:13:39;;;;;;;28.80;14.05;;;-12.20;99.90;;;;;;4988684;28;20034;-83
2022/12/18 04:16:09;;;;;;;30.33;13.50;;;-12.30;99.90;;;;;;4996831;28;20034;-82
2022/12/18 04:18:39;;;;;;;30.98;14.98;;;-12.30;99.90;;;;;;5005990;28;20035;-84
2022/12/18 04:21:05;;;;;;;34.47;16.02;;;-12.30;99.90;;;;;;4979475;28;20041;-84
2022/12/18 04:23:32;;;;;;;28.05;13.70;;;-12.30;99.90;;;;;;4972390;28;20034;-83
2022/12/18 04:25:58;;;;;;;30.90;15.75;;;-12.30;99.90;;;;;;4979246;28;20031;-83
2022/12/18 04:28:40;;;;;;;31.42;14.60;;;-12.30;99.90;;;;;;4979925;28;20034;-83
2022/12/18 04:31:06;;;;;;;33.22;15.77;;;-12.30;99.90;;;;;;5009347;28;20045;-84
2022/12/18 04:33:32;;;;;;;31.42;14.25;;;-12.30;99.90;;;;;;5008889;28;20468;-84
2022/12/18 04:35:58;;;;;;;30.70;14.68;;;-12.20;99.90;;;;;;5001667;28;20030;-83
2022/12/18 04:38:24;;;;;;;28.65;14.23;;;-12.10;99.90;;;;;;5011508;28;20037;-84
2022/12/18 04:40:57;;;;;;;29.63;14.43;;;-12.10;99.90;;;;;;5028285;28;20066;-84
2022/12/18 04:43:26;;;;;;;30.60;14.27;;;-12.20;99.90;;;;;;4995693;28;20108;-84
2022/12/18 04:45:51;;;;;;;33.05;13.68;;;-12.20;99.90;;;;;;5013595;28;20034;-84
2022/12/18 04:48:17;;;;;;;27.52;13.70;;;-12.10;99.90;;;;;;4995548;28;20052;-83
2022/12/18 04:50:43;;;;;;;30.23;13.80;;;-12.20;99.90;;;;;;4976229;28;20036;-82
2022/12/18 04:53:09;;;;;;;30.25;14.73;;;-12.20;99.90;;;;;;4976948;28;20042;-83
2022/12/18 04:55:34;;;;;;;30.77;13.80;;;-12.20;99.90;;;;;;5005307;28;20102;-83
2022/12/18 04:58:00;;;;;;;30.50;15.32;;;-12.20;99.90;;;;;;5011946;28;20498;-84
2022/12/18 05:00:26;;;;;;;31.25;14.30;;;-12.20;99.90;;;;;;4981225;28;20706;-84
2022/12/18 05:02:52;;;;;;;28.25;14.57;;;-12.30;99.90;;;;;;4998513;28;20042;-84
2022/12/18 05:05:17;;;;;;;37.35;17.33;;;-12.30;99.90;;;;;;5012205;28;20129;-83
2022/12/18 05:07:43;;;;;;;34.08;15.13;;;-12.20;99.90;;;;;;4998008;28;20130;-84
2022/12/18 05:10:09;;;;;;;32.60;15.27;;;-12.20;99.90;;;;;;5011055;28;20045;-83
2022/12/18 05:12:57;;;;;;;29.08;14.52;;;-12.10;99.90;;;;;;5011834;28;20042;-83
2022/12/18 05:15:21;;;;;;;28.17;12.68;;;-12.10;99.90;;;;;;5005593;28;20026;-82
2022/12/18 05:17:47;;;;;;;33.35;14.88;;;-12.00;99.90;;;;;;4998694;28;20529;-83
2022/12/18 05:20:12;;;;;;;29.60;14.43;;;-12.00;99.90;;;;;;5014084;28;20040;-84
2022/12/18 05:22:38;;;;;;;28.83;13.52;;;-12.00;99.90;;;;;;5013345;28;20503;-83
2022/12/18 05:25:04;;;;;;;29.92;13.30;;;-12.00;99.90;;;;;;4998736;28;20041;-84
2022/12/18 05:27:30;;;;;;;26.20;13.60;;;-12.00;99.90;;;;;;4982387;28;20038;-82
2022/12/18 05:29:56;;;;;;;30.33;14.48;;;-12.10;99.90;;;;;;5023774;28;20042;-83
2022/12/18 05:32:22;;;;;;;25.25;13.32;;;-12.10;99.90;;;;;;4986116;28;20033;-82
2022/12/18 05:34:47;;;;;;;27.58;13.48;;;-12.10;99.90;;;;;;4994810;28;20091;-84
2022/12/18 05:37:13;;;;;;;23.83;12.63;;;-12.20;99.90;;;;;;5008790;28;20023;-84
2022/12/18 05:39:39;;;;;;;24.05;11.73;;;-12.20;99.90;;;;;;5014609;28;20561;-83
2022/12/18 05:42:05;;;;;;;34.95;13.70;;;-12.30;99.90;;;;;;5015985;28;20104;-83
2022/12/18 05:44:30;;;;;;;25.23;12.98;;;-12.20;99.90;;;;;;5030863;28;20053;-83
2022/12/18 05:46:56;;;;;;;27.70;13.02;;;-12.20;99.90;;;;;;4999975;28;20022;-83
2022/12/18 05:49:22;;;;;;;26.40;12.75;;;-12.30;99.90;;;;;;4970986;28;20026;-83
2022/12/18 05:51:48;;;;;;;27.02;13.50;;;-12.30;99.90;;;;;;4997932;28;20458;-84
2022/12/18 05:54:13;;;;;;;26.58;13.93;;;-12.30;99.90;;;;;;4981683;28;20494;-83
2022/12/18 05:56:39;;;;;;;29.40;13.75;;;-12.20;99.90;;;;;;4979832;28;20403;-83
2022/12/18 05:59:05;;;;;;;26.10;13.32;;;-12.30;99.90;;;;;;4999927;28;20033;-82
2022/12/18 06:01:31;;;;;;;26.52;12.57;;;-12.30;99.90;;;;;;4993528;28;20038;-83
2022/12/18 06:03:57;;;;;;;27.02;13.20;;;-12.30;99.90;;;;;;4992328;28;20598;-83
2022/12/18 06:06:25;;;;;;;25.75;12.15;;;-12.30;99.90;;;;;;5004605;28;20026;-83
2022/12/18 06:08:52;;;;;;;28.65;12.82;;;-12.30;99.90;;;;;;4981527;28;20073;-83
2022/12/18 06:11:20;;;;;;;24.55;11.95;;;-12.30;99.90;;;;;;5007519;28;20038;-85
2022/12/18 06:13:46;;;;;;;26.27;12.38;;;-12.30;99.90;;;;;;4977351;28;20042;-83
2022/12/18 06:16:12;;;;;;;30.20;13.73;;;-12.30;99.90;;;;;;5029792;28;20674;-83
2022/12/18 06:18:38;;;;;;;28.23;13.32;;;-12.30;99.90;;;;;;4997940;28;20105;-82
2022/12/18 06:21:04;;;;;;;31.38;13.48;;;-12.20;99.90;;;;;;4982802;28;20038;-83
2022/12/18 06:23:29;;;;;;;31.70;13.75;;;-12.10;99.90;;;;;;4986394;28;20045;-82
2022/12/18 06:25:55;;;;;;;32.65;14.52;;;-12.10;99.90;;;;;;5013642;28;20076;-84
2022/12/18 06:28:21;;;;;;;32.95;13.10;;;-12.00;99.90;;;;;;4997251;28;20053;-83
2022/12/18 06:30:48;;;;;;;33.58;14.07;;;-12.00;99.90;;;;;;4998382;28;20522;-83
2022/12/18 06:33:15;;;;;;;31.27;13.65;;;-12.00;99.90;;;;;;5013437;28;20103;-84
2022/12/18 06:35:41;;;;;;;30.25;14.13;;;-12.10;99.90;;;;;;5013568;28;20117;-82
2022/12/18 06:38:07;;;;;;;32.78;14.02;;;-12.20;99.90;;;;;;4994766;28;20140;-83
2022/12/18 06:40:33;;;;;;;36.05;16.23;;;-12.20;99.90;;;;;;4978343;28;20164;-83
2022/12/18 06:42:59;;;;;;;33.30;14.80;;;-12.20;99.90;;;;;;5013349;28;20034;-82
2022/12/18 06:45:24;;;;;;;29.27;13.30;;;-12.20;99.90;;;;;;4980601;28;20038;-83
2022/12/18 06:47:51;;;;;;;33.47;13.25;;;-12.20;99.90;;;;;;5005993;28;20510;-83
2022/12/18 06:50:17;;;;;;;37.60;18.45;;;-12.10;99.90;;;;;;4993047;28;20034;-82
2022/12/18 06:52:43;;;;;;;41.83;18.30;;;-12.10;99.90;;;;;;5002102;28;20447;-82
2022/12/18 06:55:10;;;;;;;40.20;17.58;;;-12.00;99.90;;;;;;4986698;28;20041;-82
2022/12/18 06:57:37;;;;;;;44.97;22.73;;;-12.00;99.90;;;;;;4996954;28;20032;-84
2022/12/18 07:00:05;;;;;;;35.75;18.30;;;-11.90;99.90;;;;;;4996859;28;20053;-83
2022/12/18 07:02:31;;;;;;;38.63;17.38;;;-11.80;99.90;;;;;;5014604;28;20809;-82
2022/12/18 07:04:57;;;;;;;40.85;18.98;;;-11.80;99.90;;;;;;5013370;28;20272;-84
2022/12/18 07:07:23;;;;;;;34.88;17.10;;;-11.80;99.90;;;;;;4996887;28;20038;-82
2022/12/18 07:09:50;;;;;;;36.95;16.15;;;-11.80;99.90;;;;;;5010320;28;20395;-83
2022/12/18 07:12:16;;;;;;;37.72;15.77;;;-11.80;99.90;;;;;;4997168;28;20121;-83
2022/12/18 07:14:42;;;;;;;36.03;14.05;;;-11.90;99.90;;;;;;4996206;28;20030;-83
2022/12/18 07:17:08;;;;;;;32.70;15.02;;;-12.00;99.90;;;;;;5025419;28;20041;-84
2022/12/18 07:19:34;;;;;;;35.70;14.98;;;-12.00;99.90;;;;;;5005436;28;20093;-82
2022/12/18 07:22:00;;;;;;;34.13;14.80;;;-12.00;99.90;;;;;;4995543;28;20069;-82
2022/12/18 07:24:26;;;;;;;36.95;16.73;;;-12.00;99.90;;;;;;5011488;28;20565;-84
2022/12/18 07:26:52;;;;;;;33.63;14.63;;;-12.00;99.90;;;;;;5013442;28;20030;-84
2022/12/18 07:29:18;;;;;;;36.58;15.23;;;-11.90;99.90;;;;;;4978328;28;20033;-83
2022/12/18 07:31:44;;;;;;;39.45;17.15;;;-11.80;99.90;;;;;;5028970;28;20553;-83
2022/12/18 07:34:14;;;;;;;38.35;16.05;;;-11.80;99.90;;;;;;5011917;28;20141;-83
2022/12/18 07:36:40;;;;;;;37.42;15.35;;;-11.70;99.90;;;;;;4993039;28;20031;-82
2022/12/18 07:39:06;;;;;;;32.22;14.65;;;-11.60;99.90;;;;;;5009657;28;20114;-85
2022/12/18 07:41:32;;;;;;;34.15;15.45;;;-11.50;99.90;;;;;;5021016;28;20041;-82
2022/12/18 07:44:10;;;;;;;36.35;15.75;;;-11.50;99.90;;;;;;5007802;28;20049;-82
2022/12/18 07:46:35;;;;;;;32.85;14.80;;;-11.50;99.90;;;;;;4978292;28;20038;-83
2022/12/18 07:49:01;;;;;;;33.75;14.45;;;-11.40;99.90;;;;;;4998574;28;20052;-82
2022/12/18 07:51:27;;;;;;;36.42;16.63;;;-11.30;99.90;;;;;;4975020;28;20037;-82
2022/12/18 07:53:53;;;;;;;30.60;14.50;;;-11.20;99.90;;;;;;5010067;28;20034;-82
2022/12/18 07:56:19;;;;;;;35.80;15.45;;;-11.10;99.90;;;;;;4995323;28;20045;-83
2022/12/18 07:58:47;;;;;;;37.33;16.90;;;-11.10;99.90;;;;;;4978207;28;20060;-84
2022/12/18 08:01:13;;;;;;;37.63;17.55;;;-11.00;99.90;;;;;;4991266;28;20034;-82
2022/12/18 08:03:40;;;;;;;45.20;21.27;;;-10.90;99.90;;;;;;5010173;28;20061;-82
2022/12/18 08:06:09;;;;;;;49.65;22.45;;;-10.80;99.90;;;;;;5023969;28;20030;-84
2022/12/18 08:08:35;;;;;;;40.03;16.88;;;-10.80;99.90;;;;;;4992812;28;20061;-84
2022/12/18 08:11:01;;;;;;;38.42;15.50;;;-10.70;99.90;;;;;;5023806;28;20030;-84
2022/12/18 08:13:27;;;;;;;34.97;15.50;;;-10.60;99.90;;;;;;5026709;28;20641;-84
2022/12/18 08:16:05;;;;;;;43.22;17.77;;;-10.60;99.90;;;;;;5003505;28;20022;-84
2022/12/18 08:18:36;;;;;;;40.45;17.23;;;-10.50;99.90;;;;;;5009891;28;20026;-84
2022/12/18 08:21:14;;;;;;;40.22;16.17;;;-10.40;99.90;;;;;;4990014;28;20044;-84
2022/12/18 08:23:40;;;;;;;33.65;15.60;;;-10.30;99.90;;;;;;5020374;28;20026;-83
2022/12/18 08:26:07;;;;;;;35.67;16.25;;;-10.30;99.90;;;;;;4996124;28;20073;-84
2022/12/18 08:28:34;;;;;;;32.92;14.55;;;-10.20;99.90;;;;;;4980290;28;20577;-83
2022/12/18 08:31:00;;;;;;;30.75;13.45;;;-10.10;99.90;;;;;;4999923;28;20065;-83
2022/12/18 08:33:26;;;;;;;31.77;13.25;;;-10.00;99.90;;;;;;5026633;28;20049;-84
2022/12/18 08:35:52;;;;;;;31.15;13.88;;;-9.90;99.90;;;;;;4994335;28;20045;-84
2022/12/18 08:38:18;;;;;;;28.48;13.07;;;-9.80;99.90;;;;;;5013897;28;20113;-83
2022/12/18 08:40:44;;;;;;;37.58;17.30;;;-9.70;99.90;;;;;;4997025;28;20124;-83
2022/12/18 08:45:55;;;;;;;48.63;21.17;;;-9.60;99.90;;;;;;5015659;28;20069;-84
2022/12/18 08:48:21;;;;;;;38.20;18.48;;;-9.50;99.90;;;;;;5010450;28;20042;-83
2022/12/18 08:50:59;;;;;;;34.03;14.55;;;-9.40;99.90;;;;;;5005720;28;20145;-84
2022/12/18 08:53:26;;;;;;;44.40;21.75;;;-9.30;99.90;;;;;;5013783;28;20034;-84
2022/12/18 08:55:52;;;;;;;43.17;19.38;;;-9.20;99.90;;;;;;5015232;28;20033;-84
2022/12/18 08:58:18;;;;;;;79.97;36.70;;;-9.20;99.90;;;;;;5013275;28;20018;-83
2022/12/18 09:00:44;;;;;;;51.60;24.52;;;-9.10;99.90;;;;;;4997160;28;20050;-83
2022/12/18 09:03:14;;;;;;;49.03;22.98;;;-9.00;99.90;;;;;;4992288;28;20046;-84
2022/12/18 09:05:40;;;;;;;42.70;21.95;;;-8.90;99.90;;;;;;5009846;28;20037;-84
2022/12/18 09:08:06;;;;;;;41.63;16.95;;;-8.90;99.90;;;;;;5028108;28;20018;-83
2022/12/18 09:10:32;;;;;;;33.92;14.57;;;-8.90;99.90;;;;;;5008894;28;20752;-83
2022/12/18 09:13:00;;;;;;;27.25;12.95;;;-8.80;99.90;;;;;;5027880;28;20526;-84
2022/12/18 09:15:26;;;;;;;27.08;12.45;;;-8.70;99.90;;;;;;5006168;28;20066;-84
2022/12/18 09:17:52;;;;;;;25.00;12.15;;;-8.60;99.90;;;;;;4994975;28;20542;-82
2022/12/18 09:20:19;;;;;;;32.20;12.73;;;-8.50;99.90;;;;;;4991316;28;20054;-83
2022/12/18 09:22:45;;;;;;;26.42;11.02;;;-8.50;99.90;;;;;;5008497;28;20038;-82
2022/12/18 09:25:10;;;;;;;29.13;11.60;;;-8.40;99.90;;;;;;5009769;28;20022;-83
2022/12/18 09:27:36;;;;;;;22.23;10.57;;;-8.40;99.90;;;;;;4997378;28;20596;-84
2022/12/18 09:30:04;;;;;;;26.60;10.23;;;-8.30;99.90;;;;;;4990956;28;20045;-83
2022/12/18 09:32:29;;;;;;;28.23;10.20;;;-8.30;99.90;;;;;;5011254;28;20071;-83
2022/12/18 09:34:55;;;;;;;24.58;9.90;;;-8.40;99.90;;;;;;4993298;28;20502;-83
2022/12/18 09:37:21;;;;;;;25.88;9.88;;;-8.30;99.90;;;;;;4992402;28;20554;-82
2022/12/18 09:39:47;;;;;;;22.27;9.88;;;-8.30;99.90;;;;;;4995535;28;20026;-83
2022/12/18 09:42:20;;;;;;;25.27;10.10;;;-8.20;99.90;;;;;;4979462;28;20121;-84
2022/12/18 09:44:52;;;;;;;25.48;9.70;;;-8.10;99.90;;;;;;4996782;28;20038;-84
2022/12/18 09:47:25;;;;;;;23.95;9.30;;;-8.00;99.90;;;;;;5010080;28;20108;-82
2022/12/18 09:49:56;;;;;;;27.42;10.60;;;-7.90;99.90;;;;;;4978151;28;20034;-83
2022/12/18 09:52:37;;;;;;;26.65;10.45;;;-8.00;99.90;;;;;;5028581;28;20033;-82
2022/12/18 09:55:16;;;;;;;26.25;10.30;;;-7.90;99.90;;;;;;5013714;28;20029;-84
2022/12/18 09:57:52;;;;;;;22.98;9.50;;;-7.80;99.90;;;;;;5012882;28;20037;-84
2022/12/18 10:00:23;;;;;;;22.27;9.10;;;-7.70;99.90;;;;;;4993319;28;20048;-82
2022/12/18 10:02:51;;;;;;;25.33;9.73;;;-7.60;99.90;;;;;;5008692;28;20105;-84
2022/12/18 10:05:42;;;;;;;24.67;9.98;;;-7.50;99.90;;;;;;4983515;28;20030;-83
2022/12/18 10:08:21;;;;;;;23.70;9.30;;;-7.40;99.90;;;;;;5013072;28;20038;-83
2022/12/18 10:10:53;;;;;;;23.60;9.50;;;-7.30;99.90;;;;;;4994119;28;20037;-84
2022/12/18 10:13:37;;;;;;;23.70;9.23;;;-7.20;99.90;;;;;;5008992;28;20030;-84
2022/12/18 10:16:06;;;;;;;20.17;8.80;;;-7.10;99.90;;;;;;5000797;28;20562;-84
2022/12/18 10:18:47;;;;;;;19.88;8.88;;;-7.10;99.90;;;;;;4993364;28;20464;-84
2022/12/18 10:21:21;;;;;;;20.08;8.07;;;-7.00;99.90;;;;;;5000961;28;20134;-83
2022/12/18 10:24:12;;;;;;;19.00;8.35;;;-7.00;99.90;;;;;;4995455;28;20037;-83
2022/12/18 10:26:40;;;;;;;19.70;8.38;;;-7.00;99.90;;;;;;5028258;28;20044;-84
2022/12/18 10:29:12;;;;;;;18.05;7.32;;;-6.90;99.90;;;;;;5011677;28;20133;-85
2022/12/18 10:31:38;;;;;;;20.50;7.18;;;-6.90;99.90;;;;;;5011318;28;20033;-84
2022/12/18 10:34:08;;;;;;;21.80;7.85;;;-6.80;99.90;;;;;;5000572;28;20089;-85
2022/12/18 10:36:34;;;;;;;17.85;8.52;;;-6.80;99.90;;;;;;5024889;28;20120;-85
2022/12/18 10:39:26;;;;;;;19.42;8.30;;;-6.70;99.90;;;;;;5011692;28;20076;-84
2022/12/18 10:41:52;;;;;;;23.83;10.27;;;-6.60;99.90;;;;;;5001729;28;20037;-85
2022/12/18 10:44:23;;;;;;;17.85;7.78;;;-6.50;99.90;;;;;;5007261;28;20069;-85
2022/12/18 10:46:53;;;;;;;21.55;8.85;;;-6.50;99.90;;;;;;5015325;28;20513;-85
2022/12/18 10:49:48;;;;;;;16.33;7.68;;;-6.40;99.90;;;;;;4989527;28;20033;-85
2022/12/18 10:52:20;;;;;;;21.63;8.85;;;-6.30;99.90;;;;;;5008331;28;20029;-84
2022/12/18 10:54:52;;;;;;;21.25;8.38;;;-6.30;99.90;;;;;;5024704;28;20026;-85
2022/12/18 10:57:36;;;;;;;19.38;7.90;;;-6.20;99.90;;;;;;5007807;28;20038;-85
2022/12/18 11:00:27;;;;;;;23.00;9.27;;;-6.10;99.90;;;;;;5002974;28;20025;-89
2022/12/18 11:02:53;;;;;;;17.30;8.30;;;-6.10;99.90;;;;;;5005427;28;20038;-87
2022/12/18 11:05:37;;;;;;;19.92;7.78;;;-6.00;99.90;;;;;;4991222;28;20140;-84
2022/12/18 11:08:03;;;;;;;20.48;9.15;;;-6.00;99.90;;;;;;4990045;28;20030;-85
2022/12/18 11:10:35;;;;;;;18.35;8.05;;;-6.00;99.90;;;;;;4992438;28;20510;-85
2022/12/18 11:13:33;;;;;;;18.02;7.75;;;-6.00;99.90;;;;;;5008969;28;20034;-85
2022/12/18 11:15:59;;;;;;;17.67;8.13;;;-5.90;99.90;;;;;;4967202;28;20116;-88
2022/12/18 11:18:34;;;;;;;18.80;8.43;;;-5.80;99.90;;;;;;4986909;28;20163;-85
2022/12/18 11:21:11;;;;;;;19.20;7.28;;;-5.70;99.90;;;;;;5007177;28;20045;-85
2022/12/18 11:23:44;;;;;;;13.27;6.65;;;-5.70;99.90;;;;;;5016223;28;20127;-86
2022/12/18 11:26:09;;;;;;;16.55;7.43;;;-5.70;99.90;;;;;;4997093;28;20394;-85
2022/12/18 11:28:50;;;;;;;20.23;6.82;;;-5.70;99.90;;;;;;4992124;28;20034;-87
2022/12/18 11:31:22;;;;;;;19.13;7.32;;;-5.70;99.90;;;;;;4988521;28;20025;-84
2022/12/18 11:33:57;;;;;;;23.77;9.13;;;-5.60;99.90;;;;;;5005956;28;20479;-83
2022/12/18 11:36:24;;;;;;;13.98;6.60;;;-5.60;99.90;;;;;;5022820;28;20073;-83
2022/12/18 11:38:54;;;;;;;14.18;6.95;;;-5.60;99.90;;;;;;4971947;28;20560;-83
2022/12/18 11:44:28;;;;;;;18.55;6.97;;;-5.60;99.90;;;;;;5005567;28;20045;-83
2022/12/18 11:47:07;;;;;;;16.75;6.68;;;-5.50;99.90;;;;;;5021892;28;20032;-83
2022/12/18 11:49:35;;;;;;;15.27;6.93;;;-5.50;99.90;;;;;;5020291;28;20030;-83
2022/12/18 11:52:11;;;;;;;20.70;7.03;;;-5.50;99.90;;;;;;4998382;28;20442;-84
2022/12/18 11:54:37;;;;;;;15.57;7.32;;;-5.40;99.90;;;;;;4990269;28;20116;-83
2022/12/18 11:57:30;;;;;;;14.07;6.32;;;-5.40;99.90;;;;;;4990711;28;20026;-83
2022/12/18 12:00:12;;;;;;;15.77;6.72;;;-5.40;99.90;;;;;;5003037;28;20029;-84
2022/12/18 12:03:13;;;;;;;13.47;5.57;;;-5.30;99.90;;;;;;4983438;28;20439;-84
2022/12/18 12:05:48;;;;;;;15.68;6.55;;;-5.30;99.90;;;;;;4986794;28;20304;-83
2022/12/18 12:08:33;;;;;;;16.02;7.68;;;-5.30;99.90;;;;;;5001919;28;20047;-84
2022/12/18 12:11:13;;;;;;;12.95;6.28;;;-5.20;99.90;;;;;;5021734;28;20036;-83
2022/12/18 12:13:44;;;;;;;14.18;6.15;;;-5.20;99.90;;;;;;5003763;28;20030;-83
2022/12/18 12:16:13;;;;;;;11.48;5.90;;;-5.20;99.90;;;;;;5022639;28;20068;-83
2022/12/18 12:18:42;;;;;;;16.13;7.13;;;-5.20;99.90;;;;;;5004136;28;20132;-83
2022/12/18 12:21:21;;;;;;;19.25;7.00;;;-5.20;99.90;;;;;;5007140;28;20044;-84
2022/12/18 12:24:30;;;;;;;12.60;5.90;;;-5.20;99.90;;;;;;4989013;28;20022;-83
2022/12/18 12:27:05;;;;;;;15.45;6.30;;;-5.10;99.90;;;;;;4990310;28;20034;-83
2022/12/18 12:29:55;;;;;;;16.05;6.60;;;-5.10;99.90;;;;;;5004399;28;20564;-83
2022/12/18 12:32:49;;;;;;;19.40;5.60;;;-5.10;99.90;;;;;;5015412;28;20101;-84
2022/12/18 12:35:40;;;;;;;14.50;6.57;;;-5.10;99.90;;;;;;5018791;28;20026;-84
2022/12/18 12:38:23;;;;;;;12.25;5.43;;;-5.10;99.90;;;;;;4990320;28;20048;-83
2022/12/18 12:40:55;;;;;;;15.57;6.90;;;-5.00;99.90;;;;;;4989206;28;20065;-83
2022/12/18 12:43:38;;;;;;;11.23;5.47;;;-5.00;99.90;;;;;;4987908;28;20038;-83
2022/12/18 12:46:10;;;;;;;14.18;5.78;;;-5.00;99.90;;;;;;5017828;28;20034;-84
2022/12/18 12:48:59;;;;;;;8.50;4.35;;;-4.90;99.90;;;;;;4975704;28;20140;-83
2022/12/18 12:51:28;;;;;;;15.73;5.40;;;-4.90;99.90;;;;;;5005055;28;20038;-83